createdAt,value
2022-11-10T00:02:29.916Z,1.48
2022-11-10T00:05:16.404Z,1.48
2022-11-10T00:08:04.596Z,1.83
2022-11-10T00:11:01.316Z,1.92
2022-11-10T00:14:07.335Z,1.30
2022-11-10T00:17:02.442Z,1.13
2022-11-10T00:19:48.644Z,1.55
2022-11-10T00:22:35.922Z,1.48
2022-11-10T00:25:22.125Z,1.55
2022-11-10T00:30:54.007Z,1.40
2022-11-10T00:33:41.933Z,1.17
2022-11-10T00:36:27.691Z,1.20
2022-11-10T00:39:13.715Z,1.35
2022-11-10T00:41:59.750Z,1.20
2022-11-10T00:47:32.340Z,0.93
2022-11-10T00:50:19.035Z,1.27
2022-11-10T00:53:05.505Z,1.63
2022-11-10T00:55:51.200Z,1.27
2022-11-10T00:58:37.315Z,1.33
2022-11-10T01:01:25.065Z,1.20
2022-11-10T01:04:11.255Z,1.00
2022-11-10T01:06:57.432Z,1.38
2022-11-10T01:09:43.400Z,1.42
2022-11-10T01:15:16.919Z,0.90
2022-11-10T01:18:03.120Z,0.90
2022-11-10T01:20:52.723Z,1.08
2022-11-10T01:23:38.750Z,1.00
2022-11-10T01:26:25.198Z,1.25
2022-11-10T01:31:56.704Z,1.25
2022-11-10T01:34:42.715Z,1.20
2022-11-10T01:37:28.918Z,0.75
2022-11-10T01:40:14.968Z,0.90
2022-11-10T01:43:00.908Z,1.00
2022-11-10T01:45:59.672Z,0.80
2022-11-10T01:48:56.302Z,0.77
2022-11-10T01:51:58.311Z,0.75
2022-11-10T01:54:48.738Z,0.98
2022-11-10T01:57:35.870Z,1.45
2022-11-10T02:00:22.351Z,1.10
2022-11-10T02:06:15.331Z,0.82
2022-11-10T02:09:01.559Z,0.80
2022-11-10T02:11:48.227Z,0.95
2022-11-10T02:17:19.953Z,0.98
2022-11-10T02:20:10.167Z,0.80
2022-11-10T02:22:56.304Z,1.20
2022-11-10T02:25:42.482Z,0.82
2022-11-10T02:28:29.029Z,1.10
2022-11-10T02:34:00.711Z,1.00
2022-11-10T02:36:46.625Z,0.93
2022-11-10T02:39:32.841Z,1.42
2022-11-10T02:42:18.844Z,1.15
2022-11-10T02:45:05.483Z,1.30
2022-11-10T02:47:51.956Z,1.33
2022-11-10T02:50:38.644Z,1.30
2022-11-10T02:53:24.717Z,1.27
2022-11-10T02:58:56.919Z,0.93
2022-11-10T03:01:42.950Z,1.27
2022-11-10T03:04:28.740Z,1.20
2022-11-10T03:07:14.850Z,0.93
2022-11-10T03:10:00.749Z,0.73
2022-11-10T03:12:46.694Z,1.00
2022-11-10T03:15:32.733Z,1.30
2022-11-10T03:18:19.001Z,1.00
2022-11-10T03:21:04.860Z,1.25
2022-11-10T03:23:50.868Z,0.90
2022-11-10T03:26:36.958Z,1.02
2022-11-10T03:29:23.034Z,0.95
2022-11-10T03:32:09.034Z,0.90
2022-11-10T03:34:55.085Z,1.15
2022-11-10T03:37:42.352Z,1.10
2022-11-10T03:40:28.262Z,1.02
2022-11-10T03:43:14.145Z,1.20
2022-11-10T03:46:00.062Z,1.00
2022-11-10T03:48:51.807Z,1.10
2022-11-10T03:51:39.432Z,1.08
2022-11-10T03:54:25.440Z,0.90
2022-11-10T03:57:11.379Z,1.00
2022-11-10T03:59:57.469Z,0.80
2022-11-10T04:02:43.227Z,1.00
2022-11-10T04:05:47.536Z,1.00
2022-11-10T04:08:51.857Z,0.98
2022-11-10T04:11:55.969Z,1.42
2022-11-10T04:15:00.186Z,1.38
2022-11-10T04:17:50.616Z,1.33
2022-11-10T04:20:36.727Z,1.40
2022-11-10T04:23:27.326Z,1.02
2022-11-10T04:26:41.145Z,1.45
2022-11-10T04:29:27.301Z,1.30
2022-11-10T04:32:13.308Z,2.05
2022-11-10T04:34:59.237Z,1.67
2022-11-10T04:37:47.269Z,1.90
2022-11-10T04:40:33.260Z,1.20
2022-11-10T04:43:19.527Z,1.58
2022-11-10T04:48:53.442Z,1.63
2022-11-10T04:51:40.087Z,1.80
2022-11-10T04:54:26.467Z,1.58
2022-11-10T04:57:12.257Z,1.60
2022-11-10T04:59:58.247Z,1.38
2022-11-10T05:02:44.097Z,1.70
2022-11-10T05:05:30.542Z,1.90
2022-11-10T05:08:16.479Z,1.75
2022-11-10T05:11:02.696Z,2.10
2022-11-10T05:16:34.211Z,2.00
2022-11-10T05:19:20.147Z,1.90
2022-11-10T05:22:07.700Z,1.75
2022-11-10T05:24:53.407Z,1.85
2022-11-10T05:27:39.415Z,2.20
2022-11-10T05:30:25.882Z,2.50
2022-11-10T05:33:12.078Z,2.10
2022-11-10T05:35:58.241Z,2.00
2022-11-10T05:38:44.219Z,2.33
2022-11-10T05:41:30.177Z,1.98
2022-11-10T05:44:16.366Z,2.15
2022-11-10T05:47:02.945Z,1.92
2022-11-10T05:52:35.170Z,2.63
2022-11-10T05:55:24.043Z,2.90
2022-11-10T05:58:09.844Z,2.05
2022-11-10T06:00:55.736Z,2.50
2022-11-10T06:03:41.426Z,2.03
2022-11-10T06:06:27.294Z,3.08
2022-11-10T06:09:13.362Z,2.65
2022-11-10T06:11:59.360Z,2.47
2022-11-10T06:14:45.432Z,2.70
2022-11-10T06:17:31.554Z,2.40
2022-11-10T06:20:18.228Z,2.60
2022-11-10T06:23:05.548Z,2.75
2022-11-10T06:25:51.570Z,2.58
2022-11-10T06:28:37.553Z,2.72
2022-11-10T06:31:23.735Z,3.08
2022-11-10T06:34:09.781Z,2.72
2022-11-10T06:36:55.762Z,2.72
2022-11-10T06:39:41.735Z,2.72
2022-11-10T06:42:27.719Z,2.97
2022-11-10T06:45:13.815Z,2.78
2022-11-10T06:48:04.518Z,2.70
2022-11-10T06:50:50.169Z,3.10
2022-11-10T06:53:36.262Z,3.05
2022-11-10T06:59:08.736Z,3.05
2022-11-10T07:01:54.749Z,2.83
2022-11-10T07:04:40.528Z,2.65
2022-11-10T07:07:26.509Z,2.47
2022-11-10T07:10:12.552Z,3.15
2022-11-10T07:13:03.222Z,2.78
2022-11-10T07:15:49.582Z,3.33
2022-11-10T07:18:36.057Z,3.15
2022-11-10T07:24:07.930Z,2.35
2022-11-10T07:26:54.041Z,3.10
2022-11-10T07:29:40.241Z,2.45
2022-11-10T07:32:26.069Z,2.75
2022-11-10T07:35:12.217Z,3.22
2022-11-10T07:38:01.442Z,2.63
2022-11-10T07:40:51.037Z,3.35
2022-11-10T07:43:37.403Z,3.00
2022-11-10T07:46:23.500Z,3.38
2022-11-10T07:49:09.436Z,3.55
2022-11-10T07:51:55.692Z,3.00
2022-11-10T07:54:41.489Z,3.63
2022-11-10T07:57:27.376Z,3.33
2022-11-10T08:00:14.096Z,2.97
2022-11-10T08:03:10.779Z,3.25
2022-11-10T08:05:57.074Z,3.60
2022-11-10T08:08:42.953Z,2.80
2022-11-10T08:11:29.045Z,3.33
2022-11-10T08:14:14.891Z,3.28
2022-11-10T08:17:01.349Z,3.60
2022-11-10T08:19:47.562Z,3.60
2022-11-10T08:22:33.874Z,2.60
2022-11-10T08:25:19.879Z,2.72
2022-11-10T08:28:11.806Z,2.65
2022-11-10T08:31:01.498Z,3.00
2022-11-10T08:33:50.843Z,3.00
2022-11-10T08:36:38.136Z,2.47
2022-11-10T08:39:38.153Z,2.83
2022-11-10T08:42:25.029Z,2.53
2022-11-10T08:45:11.430Z,2.83
2022-11-10T08:48:03.093Z,2.75
2022-11-10T08:50:50.248Z,3.00
2022-11-10T08:53:36.900Z,3.25
2022-11-10T08:56:23.273Z,2.70
2022-11-10T08:59:09.327Z,2.85
2022-11-10T09:01:55.755Z,3.80
2022-11-10T09:04:41.696Z,2.55
2022-11-10T09:07:27.890Z,2.75
2022-11-10T09:10:14.246Z,2.17
2022-11-10T09:15:47.999Z,2.55
2022-11-10T09:18:34.123Z,2.92
2022-11-10T09:21:20.123Z,2.90
2022-11-10T09:24:06.781Z,3.40
2022-11-10T09:29:38.638Z,3.15
2022-11-10T09:32:24.524Z,2.72
2022-11-10T09:35:10.631Z,2.35
2022-11-10T09:37:56.373Z,2.47
2022-11-10T09:41:05.018Z,2.88
2022-11-10T09:44:12.780Z,2.20
2022-11-10T09:50:01.016Z,2.42
2022-11-10T09:52:49.132Z,2.38
2022-11-10T09:55:48.599Z,2.40
2022-11-10T09:58:43.458Z,2.45
2022-11-10T10:01:33.017Z,2.58
2022-11-10T10:04:28.313Z,2.80
2022-11-10T10:07:16.497Z,2.85
2022-11-10T10:10:22.949Z,2.33
2022-11-10T10:13:20.861Z,2.42
2022-11-10T10:16:50.702Z,2.35
2022-11-10T10:20:09.996Z,2.28
2022-11-10T10:23:14.083Z,1.90
2022-11-10T10:26:00.800Z,1.80
2022-11-10T10:28:48.559Z,2.35
2022-11-10T10:31:43.439Z,2.40
2022-11-10T10:34:31.748Z,2.08
2022-11-10T10:37:25.829Z,2.60
2022-11-10T10:40:17.601Z,1.92
2022-11-10T10:43:04.283Z,2.08
2022-11-10T10:46:08.404Z,1.90
2022-11-10T10:49:28.125Z,2.15
2022-11-10T10:52:17.324Z,2.20
2022-11-10T10:55:07.744Z,1.70
2022-11-10T10:57:59.685Z,2.05
2022-11-10T11:00:52.900Z,1.88
2022-11-10T11:03:45.015Z,2.00
2022-11-10T11:06:35.208Z,1.75
2022-11-10T11:09:26.131Z,2.67
2022-11-10T11:12:18.309Z,1.90
2022-11-10T11:15:22.484Z,2.40
2022-11-10T11:18:23.093Z,2.28
2022-11-10T11:21:28.530Z,1.70
2022-11-10T11:24:51.522Z,1.65
2022-11-10T11:27:37.187Z,2.20
2022-11-10T11:30:25.094Z,2.15
2022-11-10T11:33:36.324Z,1.98
2022-11-10T11:36:40.546Z,2.22
2022-11-10T11:39:41.845Z,1.80
2022-11-10T11:42:45.960Z,1.60
2022-11-10T11:46:10.191Z,2.10
2022-11-10T11:49:08.536Z,2.08
2022-11-10T11:52:06.257Z,1.98
2022-11-10T11:55:40.443Z,1.80
2022-11-10T11:58:45.172Z,1.70
2022-11-10T12:01:53.173Z,1.90
2022-11-10T12:07:45.353Z,1.80
2022-11-10T12:10:35.737Z,2.00
2022-11-10T12:13:51.861Z,1.75
2022-11-10T12:16:41.058Z,1.60
2022-11-10T12:19:48.764Z,1.73
2022-11-10T12:23:05.380Z,1.77
2022-11-10T12:26:16.826Z,1.88
2022-11-10T12:29:36.971Z,1.50
2022-11-10T12:32:40.157Z,1.50
2022-11-10T12:35:34.067Z,1.55
2022-11-10T12:38:26.817Z,2.28
2022-11-10T12:41:18.568Z,2.28
2022-11-10T12:44:09.044Z,1.60
2022-11-10T12:47:01.277Z,1.73
2022-11-10T12:50:18.375Z,2.05
2022-11-10T12:53:11.352Z,1.95
2022-11-10T12:56:22.899Z,1.88
2022-11-10T12:59:21.124Z,1.77
2022-11-10T13:02:18.982Z,1.80
2022-11-10T13:05:14.182Z,2.28
2022-11-10T13:08:15.218Z,2.03
2022-11-10T13:11:20.392Z,1.98
2022-11-10T13:14:25.773Z,1.65
2022-11-10T13:17:27.229Z,1.85
2022-11-10T13:20:54.090Z,2.03
2022-11-10T13:23:42.887Z,2.13
2022-11-10T13:26:41.043Z,1.52
2022-11-10T13:29:53.806Z,1.63
2022-11-10T13:32:39.840Z,1.80
2022-11-10T13:35:28.976Z,1.70
2022-11-10T13:38:40.852Z,1.83
2022-11-10T13:41:28.775Z,1.80
2022-11-10T13:44:47.659Z,1.63
2022-11-10T13:47:39.675Z,2.05
2022-11-10T13:50:43.995Z,1.77
2022-11-10T13:54:06.908Z,1.77
2022-11-10T13:57:17.783Z,1.80
2022-11-10T14:00:17.136Z,2.03
2022-11-10T14:03:07.921Z,1.50
2022-11-10T14:06:00.841Z,1.55
2022-11-10T14:09:19.095Z,1.70
2022-11-10T14:12:33.570Z,1.60
2022-11-10T14:15:23.124Z,1.45
2022-11-10T14:18:22.967Z,1.50
2022-11-10T14:21:20.081Z,1.50
2022-11-10T14:24:28.720Z,1.50
2022-11-10T14:27:21.284Z,1.98
2022-11-10T14:30:27.457Z,1.83
2022-11-10T14:33:14.956Z,1.40
2022-11-10T14:36:07.741Z,1.40
2022-11-10T14:38:54.068Z,1.63
2022-11-10T14:41:47.697Z,1.75
2022-11-10T14:44:35.049Z,1.77
2022-11-10T14:47:31.273Z,1.88
2022-11-10T14:50:26.962Z,1.55
2022-11-10T14:53:17.825Z,1.35
2022-11-10T14:56:07.449Z,1.50
2022-11-10T14:58:53.835Z,1.90
2022-11-10T15:01:42.353Z,1.67
2022-11-10T15:04:33.330Z,1.65
2022-11-10T15:07:19.959Z,1.52
2022-11-10T15:13:07.092Z,1.87
2022-11-10T15:16:13.631Z,1.92
2022-11-10T15:19:24.295Z,2.03
2022-11-10T15:22:16.367Z,2.45
2022-11-10T15:25:15.212Z,1.95
2022-11-10T15:28:12.481Z,1.63
2022-11-10T15:33:59.954Z,1.30
2022-11-10T15:36:45.959Z,1.23
2022-11-10T15:39:31.977Z,1.40
2022-11-10T15:42:23.427Z,1.48
2022-11-10T15:45:10.008Z,1.92
2022-11-10T15:50:43.650Z,1.60
2022-11-10T15:53:39.050Z,1.33
2022-11-10T15:56:25.491Z,2.38
2022-11-10T15:59:11.667Z,2.10
2022-11-10T16:01:57.728Z,1.67
2022-11-10T16:04:43.694Z,2.08
2022-11-10T16:07:29.698Z,2.00
2022-11-10T16:10:15.730Z,1.80
2022-11-10T16:13:01.414Z,1.73
2022-11-10T16:15:47.510Z,1.83
2022-11-10T16:18:33.197Z,1.52
2022-11-10T16:21:21.866Z,1.42
2022-11-10T16:24:08.079Z,1.98
2022-11-10T16:26:54.121Z,1.63
2022-11-10T16:29:41.852Z,1.90
2022-11-10T16:32:27.602Z,1.83
2022-11-10T16:35:14.410Z,1.60
2022-11-10T16:38:00.105Z,1.73
2022-11-10T16:40:49.422Z,1.92
2022-11-10T16:43:36.687Z,2.33
2022-11-10T16:46:25.381Z,1.80
2022-11-10T16:49:35.254Z,1.77
2022-11-10T16:52:22.581Z,2.35
2022-11-10T16:55:12.561Z,2.55
2022-11-10T16:57:59.318Z,2.92
2022-11-10T17:00:48.140Z,2.20
2022-11-10T17:03:44.082Z,2.20
2022-11-10T17:06:30.552Z,2.58
2022-11-10T17:09:20.388Z,2.33
2022-11-10T17:12:06.223Z,1.77
2022-11-10T17:14:52.132Z,1.92
2022-11-10T17:17:38.251Z,2.30
2022-11-10T17:20:30.652Z,1.92
2022-11-10T17:23:20.243Z,2.15
2022-11-10T17:26:10.185Z,2.50
2022-11-10T17:28:56.569Z,2.40
2022-11-10T17:31:42.204Z,2.20
2022-11-10T17:34:28.141Z,2.50
2022-11-10T17:37:14.589Z,2.53
2022-11-10T17:40:07.320Z,2.22
2022-11-10T17:42:53.635Z,2.75
2022-11-10T17:48:25.824Z,2.42
2022-11-10T17:51:19.920Z,2.60
2022-11-10T17:54:06.150Z,3.20
2022-11-10T17:56:52.299Z,2.42
2022-11-10T17:59:38.574Z,2.38
2022-11-10T18:02:24.441Z,2.67
2022-11-10T18:05:16.681Z,2.78
2022-11-10T18:08:02.607Z,2.75
2022-11-10T18:10:51.190Z,2.55
2022-11-10T18:13:38.044Z,3.15
2022-11-10T18:16:24.197Z,2.30
2022-11-10T18:19:11.218Z,2.47
2022-11-10T18:21:57.415Z,2.65
2022-11-10T18:24:43.646Z,3.08
2022-11-10T18:27:29.779Z,3.47
2022-11-10T18:30:17.124Z,3.08
2022-11-10T18:33:04.792Z,2.90
2022-11-10T18:35:50.720Z,2.38
2022-11-10T18:38:36.720Z,3.10
2022-11-10T18:41:40.986Z,2.65
2022-11-10T18:44:27.193Z,2.85
2022-11-10T18:47:13.595Z,3.15
2022-11-10T18:49:59.382Z,2.20
2022-11-10T18:52:45.745Z,2.25
2022-11-10T18:55:31.518Z,1.85
2022-11-10T18:58:17.254Z,1.58
2022-11-10T19:01:09.036Z,2.72
2022-11-10T19:03:55.292Z,2.75
2022-11-10T19:06:41.080Z,1.90
2022-11-10T19:09:27.315Z,2.60
2022-11-10T19:12:13.845Z,2.17
2022-11-10T19:17:45.572Z,3.03
2022-11-10T19:20:31.468Z,2.42
2022-11-10T19:23:17.832Z,2.58
2022-11-10T19:26:07.053Z,2.53
2022-11-10T19:28:55.473Z,2.65
2022-11-10T19:31:42.355Z,2.33
2022-11-10T19:34:28.394Z,2.88
2022-11-10T19:37:14.594Z,2.65
2022-11-10T19:40:00.706Z,2.70
2022-11-10T19:42:46.671Z,2.53
2022-11-10T19:45:34.049Z,2.70
2022-11-10T19:48:19.811Z,2.67
2022-11-10T19:51:06.314Z,2.22
2022-11-10T19:54:05.206Z,2.67
2022-11-10T19:56:51.705Z,2.47
2022-11-10T19:59:37.629Z,2.53
2022-11-10T20:02:23.656Z,2.75
2022-11-10T20:05:16.722Z,2.33
2022-11-10T20:08:11.656Z,2.30
2022-11-10T20:11:05.305Z,2.90
2022-11-10T20:13:55.135Z,2.50
2022-11-10T20:16:41.254Z,3.20
2022-11-10T20:19:27.337Z,2.53
2022-11-10T20:22:13.665Z,2.92
2022-11-10T20:24:59.854Z,3.10
2022-11-10T20:27:45.671Z,3.05
2022-11-10T20:30:36.568Z,3.25
2022-11-10T20:33:22.888Z,2.78
2022-11-10T20:36:18.909Z,2.97
2022-11-10T20:39:06.542Z,3.42
2022-11-10T20:41:52.708Z,2.90
2022-11-10T20:44:38.860Z,3.13
2022-11-10T20:47:25.738Z,3.17
2022-11-10T20:50:17.132Z,3.42
2022-11-10T20:53:05.940Z,3.50
2022-11-10T20:56:02.105Z,2.63
2022-11-10T20:58:49.153Z,2.90
2022-11-10T21:01:37.575Z,2.45
2022-11-10T21:04:23.799Z,2.88
2022-11-10T21:07:10.434Z,2.72
2022-11-10T21:12:51.536Z,2.35
2022-11-10T21:15:39.415Z,2.22
2022-11-10T21:18:28.807Z,2.58
2022-11-10T21:21:22.816Z,2.60
2022-11-10T21:24:09.422Z,3.05
2022-11-10T21:26:57.005Z,2.50
2022-11-10T21:29:43.076Z,3.00
2022-11-10T21:32:29.254Z,2.65
2022-11-10T21:35:15.725Z,2.15
2022-11-10T21:40:47.908Z,2.55
2022-11-10T21:43:34.053Z,2.55
2022-11-10T21:46:20.915Z,2.38
2022-11-10T21:49:08.038Z,2.10
2022-11-10T21:51:54.693Z,2.10
2022-11-10T21:54:40.679Z,2.22
2022-11-10T21:57:26.503Z,1.80
2022-11-10T22:00:13.353Z,2.42
2022-11-10T22:03:00.219Z,1.50
2022-11-10T22:05:46.474Z,1.52
2022-11-10T22:08:33.733Z,1.77
2022-11-10T22:11:39.303Z,1.50
2022-11-10T22:14:43.845Z,1.70
2022-11-10T22:17:48.076Z,1.65
2022-11-10T22:20:33.857Z,1.77
2022-11-10T22:23:39.753Z,1.42
2022-11-10T22:26:25.838Z,1.35
2022-11-10T22:29:11.982Z,2.25
2022-11-10T22:31:58.792Z,1.60
2022-11-10T22:34:45.145Z,1.58
2022-11-10T22:37:33.155Z,1.73
2022-11-10T22:40:37.854Z,2.10
2022-11-10T22:43:42.034Z,1.67
2022-11-10T22:46:28.375Z,1.50
2022-11-10T22:49:16.013Z,1.45
2022-11-10T22:52:02.227Z,1.58
2022-11-10T22:54:47.991Z,1.42
2022-11-10T22:57:34.138Z,2.13
2022-11-10T23:00:20.408Z,1.83
2022-11-10T23:03:06.494Z,2.20
2022-11-10T23:05:56.430Z,1.60
2022-11-10T23:08:43.225Z,1.83
2022-11-10T23:11:31.174Z,1.80
2022-11-10T23:14:18.758Z,1.52
2022-11-10T23:17:04.835Z,1.63
2022-11-10T23:19:50.623Z,2.15
2022-11-10T23:22:36.701Z,1.48
2022-11-10T23:25:22.897Z,1.48
2022-11-10T23:28:08.840Z,1.80
2022-11-10T23:31:01.576Z,2.10
2022-11-10T23:33:50.050Z,1.95
2022-11-10T23:36:35.878Z,1.92
2022-11-10T23:39:21.951Z,2.33
2022-11-10T23:42:08.142Z,1.98
2022-11-10T23:44:54.212Z,2.40
2022-11-10T23:47:40.056Z,2.50
2022-11-10T23:50:25.876Z,2.20
2022-11-10T23:53:12.693Z,1.75
2022-11-10T23:56:04.356Z,1.90
2022-11-10T23:58:50.153Z,2.00
